createdAt,value
2023-01-28T00:04:53.103Z,99827.50
2023-01-28T00:09:56.661Z,99815.88
2023-01-28T00:15:00.142Z,99825.16
2023-01-28T00:20:05.255Z,99820.47
2023-01-28T00:25:09.172Z,99821.91
2023-01-28T00:30:13.893Z,99824.47
2023-01-28T00:35:18.811Z,99830.84
2023-01-28T00:40:22.070Z,99828.84
2023-01-28T00:45:25.492Z,99823.31
2023-01-28T00:50:30.433Z,99827.38
2023-01-28T00:55:33.883Z,99786.22
2023-01-28T01:00:37.557Z,99827.91
2023-01-28T01:05:42.400Z,99836.56
2023-01-28T01:10:45.676Z,99835.16
2023-01-28T01:15:49.102Z,99836.91
2023-01-28T01:20:59.365Z,99829.03
2023-01-28T01:26:03.636Z,99835.97
2023-01-28T01:31:08.879Z,99842.44
2023-01-28T01:36:15.275Z,99832.84
2023-01-28T01:41:26.695Z,99827.38
2023-01-28T01:46:37.817Z,99829.88
2023-01-28T01:51:43.253Z,99838.22
2023-01-28T01:56:50.907Z,99832.72
2023-01-28T02:01:55.566Z,99834.56
2023-01-28T02:07:03.036Z,99827.41
2023-01-28T02:12:11.351Z,99826.59
2023-01-28T02:17:15.561Z,99832.03
2023-01-28T02:22:58.082Z,99835.66
2023-01-28T02:28:16.260Z,99838.63
2023-01-28T02:33:26.363Z,99836.50
2023-01-28T02:38:33.651Z,99836.25
2023-01-28T02:43:40.704Z,99841.25
2023-01-28T02:48:44.387Z,99842.09
2023-01-28T02:53:53.550Z,99852.91
2023-01-28T02:59:25.279Z,99856.41
2023-01-28T03:04:31.643Z,99858.00
2023-01-28T03:09:36.227Z,99854.25
2023-01-28T03:15:00.406Z,99860.31
2023-01-28T03:20:21.863Z,99861.03
2023-01-28T03:25:46.036Z,99857.53
2023-01-28T03:31:15.585Z,99856.72
2023-01-28T03:36:36.852Z,99867.59
2023-01-28T03:41:40.626Z,99856.25
2023-01-28T03:46:45.615Z,99848.03
2023-01-28T03:51:49.210Z,99847.03
2023-01-28T03:56:52.872Z,99838.09
2023-01-28T04:01:57.909Z,99843.72
2023-01-28T04:07:02.058Z,99854.25
2023-01-28T04:12:06.663Z,99854.44
2023-01-28T04:17:11.722Z,99856.41
2023-01-28T04:22:15.416Z,99856.09
2023-01-28T04:27:18.940Z,99862.94
2023-01-28T04:32:23.639Z,99860.72
2023-01-28T04:37:27.245Z,99859.69
2023-01-28T04:42:30.721Z,99867.97
2023-01-28T04:47:35.658Z,99871.06
2023-01-28T04:52:38.966Z,99881.47
2023-01-28T04:57:42.584Z,99886.13
2023-01-28T05:02:47.348Z,99883.16
2023-01-28T05:07:55.032Z,99892.50
2023-01-28T05:12:58.517Z,99890.94
2023-01-28T05:18:03.516Z,99889.13
2023-01-28T05:23:07.031Z,99894.09
2023-01-28T05:28:10.583Z,99888.59
2023-01-28T05:33:15.340Z,99903.50
2023-01-28T05:38:18.922Z,99904.47
2023-01-28T05:43:22.307Z,99909.81
2023-01-28T05:48:27.316Z,99910.88
2023-01-28T05:53:30.888Z,99907.19
2023-01-28T05:58:34.503Z,99903.78
2023-01-28T06:03:39.388Z,99913.88
2023-01-28T06:08:42.715Z,99911.69
2023-01-28T06:13:46.103Z,99920.41
2023-01-28T06:18:51.051Z,99907.47
2023-01-28T06:23:54.435Z,99917.56
2023-01-28T06:28:58.177Z,99919.31
2023-01-28T06:34:03.125Z,99922.06
2023-01-28T06:39:06.888Z,99928.94
2023-01-28T06:44:10.410Z,99930.75
2023-01-28T06:49:15.410Z,99930.94
2023-01-28T06:54:18.904Z,99927.03
2023-01-28T06:59:22.483Z,99933.41
2023-01-28T07:04:27.257Z,99925.25
2023-01-28T07:09:31.057Z,99926.09
2023-01-28T07:14:34.385Z,99917.78
2023-01-28T07:19:39.728Z,99908.53
2023-01-28T07:24:43.212Z,99915.63
2023-01-28T07:29:46.765Z,99919.59
2023-01-28T07:34:51.588Z,99918.91
2023-01-28T07:39:56.465Z,99920.03
2023-01-28T07:45:00.031Z,99921.28
2023-01-28T07:50:05.223Z,99924.41
2023-01-28T07:55:09.405Z,99925.59
2023-01-28T08:00:14.459Z,99927.91
2023-01-28T08:05:21.659Z,99923.09
2023-01-28T08:10:25.630Z,99921.38
2023-01-28T08:15:30.117Z,99921.75
2023-01-28T08:20:35.008Z,99913.69
2023-01-28T08:25:38.368Z,99902.22
2023-01-28T08:30:42.893Z,99904.25
2023-01-28T08:35:48.153Z,99905.56
2023-01-28T08:40:54.305Z,99906.13
2023-01-28T08:45:57.611Z,99905.25
2023-01-28T08:51:02.501Z,99891.00
2023-01-28T08:56:05.809Z,99900.59
2023-01-28T09:01:09.253Z,99904.56
2023-01-28T09:06:14.047Z,99903.91
2023-01-28T09:11:17.813Z,99881.72
2023-01-28T09:16:21.452Z,99897.03
2023-01-28T09:21:26.362Z,99883.84
2023-01-28T09:26:29.579Z,99885.13
2023-01-28T09:31:33.229Z,99883.44
2023-01-28T09:36:38.113Z,99881.84
2023-01-28T09:41:54.202Z,99881.84
2023-01-28T09:47:03.850Z,99878.31
2023-01-28T09:52:15.981Z,99885.19
2023-01-28T09:57:24.368Z,99873.69
2023-01-28T10:02:47.297Z,99866.81
2023-01-28T10:08:03.276Z,99864.75
2023-01-28T10:13:21.907Z,99867.19
2023-01-28T10:18:36.244Z,99850.53
2023-01-28T10:23:51.536Z,99853.81
2023-01-28T10:29:01.934Z,99844.84
2023-01-28T10:34:05.594Z,99836.22
2023-01-28T10:39:12.896Z,99838.66
2023-01-28T10:44:23.293Z,99836.88
2023-01-28T10:49:29.213Z,99838.28
2023-01-28T10:54:34.051Z,99828.56
2023-01-28T10:59:42.011Z,99821.53
2023-01-28T11:04:45.479Z,99824.31
2023-01-28T11:09:52.243Z,99820.34
2023-01-28T11:14:58.113Z,99802.16
2023-01-28T11:20:10.348Z,99813.84
2023-01-28T11:25:21.010Z,99803.59
2023-01-28T11:30:26.877Z,99802.56
2023-01-28T11:35:32.315Z,99799.41
2023-01-28T11:40:37.349Z,99788.19
2023-01-28T11:45:47.171Z,99782.19
2023-01-28T11:50:59.243Z,99778.38
2023-01-28T11:56:26.709Z,99761.53
2023-01-28T12:01:40.773Z,99770.56
2023-01-28T12:07:08.122Z,99771.84
2023-01-28T12:12:27.084Z,99766.78
2023-01-28T12:17:44.104Z,99767.88
2023-01-28T12:23:07.765Z,99759.69
2023-01-28T12:28:23.883Z,99748.16
2023-01-28T12:33:48.332Z,99747.50
2023-01-28T12:39:03.284Z,99736.94
2023-01-28T12:44:12.694Z,99725.81
2023-01-28T12:49:23.505Z,99732.09
2023-01-28T12:54:32.727Z,99729.25
2023-01-28T12:59:45.749Z,99738.50
2023-01-28T13:04:56.045Z,99734.97
2023-01-28T13:10:05.222Z,99727.97
2023-01-28T13:15:16.732Z,99736.34
2023-01-28T13:20:33.184Z,99715.84
2023-01-28T13:25:37.163Z,99733.94
2023-01-28T13:30:50.846Z,99729.28
2023-01-28T13:35:56.905Z,99717.47
2023-01-28T13:41:04.868Z,99720.75
2023-01-28T13:46:12.737Z,99720.28
2023-01-28T13:51:21.737Z,99706.59
2023-01-28T13:56:32.122Z,99703.50
2023-01-28T14:02:03.906Z,99696.50
2023-01-28T14:07:51.662Z,99695.81
2023-01-28T14:13:28.560Z,99695.91
2023-01-28T14:18:38.661Z,99697.59
2023-01-28T14:23:47.581Z,99696.59
2023-01-28T14:29:01.553Z,99690.09
2023-01-28T14:34:13.822Z,99685.38
2023-01-28T14:39:20.148Z,99684.41
2023-01-28T14:44:30.114Z,99686.88
2023-01-28T14:49:42.654Z,99686.09
2023-01-28T14:55:00.162Z,99685.94
2023-01-28T15:00:08.593Z,99675.53
2023-01-28T15:05:18.315Z,99683.03
2023-01-28T15:10:28.998Z,99668.81
2023-01-28T15:15:36.707Z,99665.47
2023-01-28T15:20:46.506Z,99672.47
2023-01-28T15:25:49.990Z,99666.19
2023-01-28T15:30:53.661Z,99661.09
2023-01-28T15:36:00.151Z,99659.25
2023-01-28T15:41:05.182Z,99647.47
2023-01-28T15:46:13.440Z,99653.06
2023-01-28T15:51:25.240Z,99644.22
2023-01-28T15:56:30.275Z,99633.75
2023-01-28T16:01:34.037Z,99634.91
2023-01-28T16:06:42.102Z,99624.94
2023-01-28T16:11:46.079Z,99626.47
2023-01-28T16:16:50.267Z,99627.72
2023-01-28T16:21:55.333Z,99620.63
2023-01-28T16:27:00.115Z,99609.78
2023-01-28T16:32:04.675Z,99602.91
2023-01-28T16:37:12.412Z,99596.00
2023-01-28T16:42:16.009Z,99614.81
2023-01-28T16:47:19.580Z,99613.56
2023-01-28T16:52:24.521Z,99608.88
2023-01-28T16:57:28.511Z,99611.38
2023-01-28T17:02:31.858Z,99611.59
2023-01-28T17:07:36.874Z,99607.88
2023-01-28T17:12:40.256Z,99607.94
2023-01-28T17:17:43.864Z,99607.16
2023-01-28T17:22:48.738Z,99607.81
2023-01-28T17:27:52.016Z,99591.09
2023-01-28T17:32:55.871Z,99586.47
2023-01-28T17:38:00.865Z,99580.47
2023-01-28T17:43:04.245Z,99584.72
2023-01-28T17:48:08.049Z,99578.56
2023-01-28T17:53:13.139Z,99580.19
2023-01-28T17:58:16.943Z,99577.41
2023-01-28T18:03:20.313Z,99575.50
2023-01-28T18:08:25.638Z,99570.44
2023-01-28T18:13:28.962Z,99564.59
2023-01-28T18:18:32.703Z,99572.09
2023-01-28T18:23:37.613Z,99567.66
2023-01-28T18:28:40.907Z,99549.06
2023-01-28T18:33:44.548Z,99545.19
2023-01-28T18:38:49.576Z,99540.16
2023-01-28T18:43:53.035Z,99538.59
2023-01-28T18:48:58.088Z,99531.75
2023-01-28T18:54:08.027Z,99532.56
2023-01-28T18:59:15.276Z,99527.66
2023-01-28T19:04:19.092Z,99522.44
2023-01-28T19:09:24.135Z,99532.66
2023-01-28T19:14:27.495Z,99529.13
2023-01-28T19:19:31.252Z,99527.22
2023-01-28T19:24:36.621Z,99524.09
2023-01-28T19:29:40.220Z,99523.84
2023-01-28T19:34:43.722Z,99513.63
2023-01-28T19:39:49.147Z,99514.78
2023-01-28T19:44:52.691Z,99509.59
2023-01-28T19:49:56.345Z,99500.41
2023-01-28T19:55:01.304Z,99491.81
2023-01-28T20:00:06.021Z,99484.69
2023-01-28T20:05:10.368Z,99488.44
2023-01-28T20:10:15.353Z,99465.00
2023-01-28T20:15:18.550Z,99481.72
2023-01-28T20:20:22.300Z,99473.50
2023-01-28T20:25:27.303Z,99466.28
2023-01-28T20:30:31.134Z,99467.22
2023-01-28T20:35:34.710Z,99467.81
2023-01-28T20:40:42.663Z,99469.09
2023-01-28T20:45:46.136Z,99449.34
2023-01-28T20:50:49.690Z,99452.03
2023-01-28T20:55:59.269Z,99448.25
2023-01-28T21:01:03.172Z,99450.03
2023-01-28T21:06:07.085Z,99443.09
2023-01-28T21:11:12.574Z,99438.22
2023-01-28T21:16:15.932Z,99419.22
2023-01-28T21:21:21.296Z,99403.97
2023-01-28T21:26:26.445Z,99418.00
2023-01-28T21:31:30.106Z,99407.03
2023-01-28T21:36:34.568Z,99406.97
2023-01-28T21:41:39.565Z,99402.06
2023-01-28T21:46:43.264Z,99407.13
2023-01-28T21:51:49.832Z,99401.34
2023-01-28T21:56:55.126Z,99397.72
2023-01-28T22:02:00.738Z,99403.03
2023-01-28T22:07:06.428Z,99401.00
2023-01-28T22:12:12.168Z,99392.41
2023-01-28T22:17:15.836Z,99393.47
2023-01-28T22:22:19.521Z,99389.63
2023-01-28T22:27:25.737Z,99391.59
2023-01-28T22:32:30.478Z,99378.13
2023-01-28T22:37:34.067Z,99372.22
2023-01-28T22:42:38.834Z,99373.16
2023-01-28T22:47:44.511Z,99360.13
2023-01-28T22:52:48.961Z,99358.72
2023-01-28T22:57:54.042Z,99344.28
2023-01-28T23:02:57.076Z,99335.81
2023-01-28T23:08:10.654Z,99328.38
2023-01-28T23:13:16.313Z,99319.22
2023-01-28T23:18:39.739Z,99323.22
2023-01-28T23:24:00.412Z,99318.88
2023-01-28T23:29:05.590Z,99304.31
2023-01-28T23:34:09.714Z,99310.47
2023-01-28T23:39:13.602Z,99302.69
2023-01-28T23:44:18.635Z,99284.06
2023-01-28T23:49:22.591Z,99263.47
2023-01-28T23:54:25.984Z,99277.09
2023-01-28T23:59:31.253Z,99275.50
